Time;durP1;ratioP1;P1;durP2;ratioP2;P2;SDS_P1;SDS_P2;PMS_P1;PMS_P2;Temp;Humidity;BMP_temperature;BMP_pressure;BME280_temperature;BME280_humidity;BME280_pressure;Samples;Min_cycle;Max_cycle;Signal;HPM_P1;HPM_P2
2022/06/15 00:00:06;;;;;;;6.97;4.05;;;14.30;99.90;;;;;;5013818;28;20470;-68
2022/06/15 00:02:32;;;;;;;5.43;4.10;;;14.30;99.90;;;;;;5012606;28;20093;-68
2022/06/15 00:04:58;;;;;;;9.35;4.30;;;14.20;99.90;;;;;;5012461;28;20037;-68
2022/06/15 00:07:23;;;;;;;7.15;4.35;;;14.20;99.90;;;;;;5012482;28;20080;-68
2022/06/15 00:09:49;;;;;;;6.10;3.92;;;14.20;99.90;;;;;;5012456;28;20046;-68
2022/06/15 00:12:14;;;;;;;8.88;4.80;;;14.10;99.90;;;;;;5012421;28;20062;-68
2022/06/15 00:14:40;;;;;;;6.38;4.20;;;14.10;99.90;;;;;;5012256;28;20042;-68
2022/06/15 00:17:05;;;;;;;10.55;4.85;;;14.10;99.90;;;;;;5012283;28;20042;-68
2022/06/15 00:19:31;;;;;;;9.55;4.30;;;14.00;99.90;;;;;;5012545;28;20053;-68
2022/06/15 00:21:57;;;;;;;9.32;4.43;;;14.00;99.90;;;;;;4995933;28;20041;-68
2022/06/15 00:24:23;;;;;;;8.10;4.38;;;14.00;99.90;;;;;;5012158;28;20038;-68
2022/06/15 00:26:49;;;;;;;10.80;4.55;;;14.00;99.90;;;;;;5012237;28;20489;-68
2022/06/15 00:29:14;;;;;;;9.30;4.38;;;14.00;99.90;;;;;;5013439;28;20045;-68
2022/06/15 00:31:40;;;;;;;11.07;4.60;;;13.90;99.90;;;;;;5013390;28;20042;-68
2022/06/15 00:34:06;;;;;;;9.10;4.47;;;13.90;99.90;;;;;;5013544;28;20030;-68
2022/06/15 00:36:31;;;;;;;10.45;4.53;;;13.90;99.90;;;;;;5012178;28;20457;-68
2022/06/15 00:38:58;;;;;;;7.32;4.70;;;13.80;99.90;;;;;;5012360;28;20522;-68
2022/06/15 00:41:30;;;;;;;13.25;4.75;;;13.80;99.90;;;;;;4995682;28;20038;-68
2022/06/15 00:44:16;;;;;;;9.17;4.83;;;13.80;99.90;;;;;;5013120;28;20041;-68
2022/06/15 00:46:44;;;;;;;7.03;4.30;;;13.70;99.90;;;;;;5011994;28;20478;-68
2022/06/15 00:49:17;;;;;;;12.10;5.10;;;13.70;99.90;;;;;;5011998;28;20097;-68
2022/06/15 00:51:46;;;;;;;8.27;4.70;;;13.70;99.90;;;;;;5012005;28;20038;-68
2022/06/15 00:54:12;;;;;;;7.82;5.15;;;13.60;99.90;;;;;;5013358;28;20038;-68
2022/06/15 00:56:38;;;;;;;8.65;4.93;;;13.50;99.90;;;;;;5011824;28;20041;-68
2022/06/15 00:59:09;;;;;;;10.40;4.60;;;13.60;99.90;;;;;;5011875;28;20041;-68
2022/06/15 01:01:35;;;;;;;8.13;4.85;;;13.50;99.90;;;;;;4995545;28;20509;-68
2022/06/15 01:04:03;;;;;;;8.50;4.65;;;13.40;99.90;;;;;;5013029;28;20046;-68
2022/06/15 01:06:47;;;;;;;6.80;4.47;;;13.40;99.90;;;;;;4996273;28;20104;-68
2022/06/15 01:09:24;;;;;;;9.10;4.75;;;13.40;99.90;;;;;;4999739;28;20068;-68
2022/06/15 01:11:49;;;;;;;8.75;4.57;;;13.40;99.90;;;;;;5015927;28;20406;-68
2022/06/15 01:14:21;;;;;;;9.93;4.82;;;13.30;99.90;;;;;;5015830;28;20041;-68
2022/06/15 01:16:49;;;;;;;7.22;4.75;;;13.30;99.90;;;;;;4999306;28;20038;-68
2022/06/15 01:19:37;;;;;;;10.65;5.20;;;13.20;99.90;;;;;;4999451;28;20128;-68
2022/06/15 01:22:17;;;;;;;6.95;4.78;;;13.30;99.90;;;;;;5015793;28;20096;-68
2022/06/15 01:24:45;;;;;;;8.45;5.22;;;13.20;99.90;;;;;;5015484;28;20038;-68
2022/06/15 01:27:17;;;;;;;9.15;4.60;;;13.20;99.90;;;;;;5015712;28;20037;-67
2022/06/15 01:30:15;;;;;;;8.65;4.68;;;13.10;99.90;;;;;;5015425;28;20073;-67
2022/06/15 01:33:04;;;;;;;8.18;4.90;;;13.10;99.90;;;;;;5015689;28;20052;-67
2022/06/15 01:35:53;;;;;;;9.68;4.32;;;13.10;99.90;;;;;;4999216;28;20393;-67
2022/06/15 01:38:40;;;;;;;8.52;4.78;;;13.00;99.90;;;;;;4985467;28;20525;-67
2022/06/15 01:41:34;;;;;;;10.38;4.90;;;13.00;99.90;;;;;;5015227;28;20042;-67
2022/06/15 01:44:22;;;;;;;9.50;4.70;;;13.00;99.90;;;;;;5047194;22;20072;-71
2022/06/15 01:46:48;;;;;;;7.90;4.75;;;12.90;99.90;;;;;;5034917;28;20520;-71
2022/06/15 01:49:28;;;;;;;9.52;4.72;;;12.90;99.90;;;;;;5034776;28;20044;-71
2022/06/15 01:51:56;;;;;;;10.65;4.93;;;12.90;99.90;;;;;;5035117;28;20048;-71
2022/06/15 01:54:28;;;;;;;8.35;4.57;;;12.90;99.90;;;;;;5034636;28;20048;-71
2022/06/15 01:56:56;;;;;;;7.43;4.40;;;12.80;99.90;;;;;;5018181;28;20153;-72
2022/06/15 01:59:43;;;;;;;8.43;4.25;;;12.80;99.90;;;;;;5034893;28;20034;-72
2022/06/15 02:02:27;;;;;;;8.35;3.80;;;12.80;99.90;;;;;;5018142;28;20041;-71
2022/06/15 02:05:23;;;;;;;6.93;4.10;;;12.80;99.90;;;;;;5017840;28;20082;-71
2022/06/15 02:08:01;;;;;;;9.45;4.50;;;12.80;99.90;;;;;;5034394;28;20088;-71
2022/06/15 02:10:29;;;;;;;9.02;4.45;;;12.70;99.90;;;;;;5034749;28;20041;-71
2022/06/15 02:12:59;;;;;;;8.35;3.83;;;12.70;99.90;;;;;;5034362;28;20052;-71
2022/06/15 02:15:27;;;;;;;10.68;4.50;;;12.70;99.90;;;;;;5034417;28;20041;-71
2022/06/15 02:17:57;;;;;;;10.27;4.57;;;12.70;99.90;;;;;;5016779;28;20047;-72
2022/06/15 02:20:33;;;;;;;6.70;4.18;;;12.70;99.90;;;;;;5034122;28;20045;-71
2022/06/15 02:23:02;;;;;;;8.20;3.85;;;12.70;99.90;;;;;;5034186;28;20083;-70
2022/06/15 02:25:33;;;;;;;7.57;4.35;;;12.70;99.90;;;;;;5017548;28;20033;-70
2022/06/15 02:28:00;;;;;;;8.88;4.38;;;12.70;99.90;;;;;;5034104;28;20413;-71
2022/06/15 02:30:27;;;;;;;8.48;4.60;;;12.70;99.90;;;;;;5034062;28;20091;-71
2022/06/15 02:32:54;;;;;;;8.35;4.55;;;12.60;99.90;;;;;;5017503;28;20029;-71
2022/06/15 02:35:20;;;;;;;10.07;4.55;;;12.60;99.90;;;;;;5033910;28;20033;-71
2022/06/15 02:37:48;;;;;;;9.10;5.00;;;12.60;99.90;;;;;;5033794;28;20048;-71
2022/06/15 02:40:17;;;;;;;7.20;4.75;;;12.60;99.90;;;;;;5034107;28;20515;-71
2022/06/15 02:42:46;;;;;;;7.95;4.72;;;12.60;99.90;;;;;;5033899;28;20044;-71
2022/06/15 02:45:38;;;;;;;7.68;4.55;;;12.60;99.90;;;;;;5017303;28;20429;-71
2022/06/15 02:48:06;;;;;;;8.90;4.88;;;12.70;99.90;;;;;;5033773;28;20041;-71
2022/06/15 02:50:41;;;;;;;8.20;4.43;;;12.60;99.90;;;;;;5033652;28;20041;-71
2022/06/15 02:53:16;;;;;;;7.30;4.47;;;12.70;99.90;;;;;;5017030;28;20105;-71
2022/06/15 02:55:43;;;;;;;7.45;4.80;;;12.70;99.90;;;;;;5033458;28;20501;-71
2022/06/15 02:58:14;;;;;;;11.48;5.30;;;12.60;99.90;;;;;;5017002;28;20486;-71
2022/06/15 03:00:40;;;;;;;7.60;4.70;;;12.60;99.90;;;;;;5033746;28;20497;-71
2022/06/15 03:03:06;;;;;;;7.38;4.90;;;12.60;99.90;;;;;;5033352;28;20059;-71
2022/06/15 03:05:32;;;;;;;11.27;5.28;;;12.60;99.90;;;;;;5033359;28;20030;-71
2022/06/15 03:07:58;;;;;;;7.75;5.00;;;12.60;99.90;;;;;;5033264;28;20095;-71
2022/06/15 03:10:24;;;;;;;9.73;5.10;;;12.60;99.90;;;;;;5033254;28;20080;-71
2022/06/15 03:12:49;;;;;;;8.40;4.65;;;12.60;99.90;;;;;;5016677;28;20038;-71
2022/06/15 03:15:16;;;;;;;8.38;5.05;;;12.60;99.90;;;;;;5033334;28;20037;-71
2022/06/15 03:17:41;;;;;;;11.50;4.85;;;12.60;99.90;;;;;;5033112;28;20452;-71
2022/06/15 03:20:09;;;;;;;7.97;4.90;;;12.60;99.90;;;;;;5033109;28;20489;-71
2022/06/15 03:22:35;;;;;;;7.32;4.47;;;12.60;99.90;;;;;;5016548;28;20079;-71
2022/06/15 03:25:02;;;;;;;8.00;4.70;;;12.60;99.90;;;;;;5032887;28;20049;-71
2022/06/15 03:27:27;;;;;;;10.98;5.25;;;12.60;99.90;;;;;;5032937;28;20056;-71
2022/06/15 03:29:53;;;;;;;7.00;4.70;;;12.50;99.90;;;;;;5032636;28;20034;-71
2022/06/15 03:32:20;;;;;;;9.68;5.22;;;12.60;99.90;;;;;;5032842;28;20045;-71
2022/06/15 03:34:45;;;;;;;7.90;4.63;;;12.60;99.90;;;;;;5016287;28;20405;-71
2022/06/15 03:37:11;;;;;;;10.00;4.63;;;12.60;99.90;;;;;;5032811;28;20048;-71
2022/06/15 03:39:37;;;;;;;8.13;4.78;;;12.60;99.90;;;;;;5032696;28;20561;-71
2022/06/15 03:42:14;;;;;;;9.15;5.25;;;12.60;99.90;;;;;;5032717;28;20050;-71
2022/06/15 03:44:41;;;;;;;8.77;5.25;;;12.60;99.90;;;;;;5016012;28;20045;-71
2022/06/15 03:47:10;;;;;;;9.55;4.75;;;12.60;99.90;;;;;;5032633;28;20042;-71
2022/06/15 03:49:36;;;;;;;9.20;5.28;;;12.60;99.90;;;;;;5032810;28;20060;-71
2022/06/15 03:52:01;;;;;;;9.30;4.97;;;12.60;99.90;;;;;;5032451;28;20430;-71
2022/06/15 03:54:27;;;;;;;8.98;5.30;;;12.60;99.90;;;;;;5032695;28;20133;-71
2022/06/15 03:56:53;;;;;;;6.45;4.82;;;12.60;99.90;;;;;;5032255;28;20045;-71
2022/06/15 03:59:18;;;;;;;8.55;5.20;;;12.60;99.90;;;;;;5032396;28;20404;-71
2022/06/15 04:01:44;;;;;;;9.57;4.90;;;12.60;99.90;;;;;;5016115;28;20030;-71
2022/06/15 04:04:09;;;;;;;8.02;4.82;;;12.60;99.90;;;;;;5032225;28;20524;-71
2022/06/15 04:06:35;;;;;;;11.07;5.32;;;12.70;99.90;;;;;;5032250;28;20048;-71
2022/06/15 04:09:01;;;;;;;9.82;5.22;;;12.70;99.90;;;;;;5015788;28;20069;-71
2022/06/15 04:14:11;;;;;;;12.57;5.43;;;12.70;99.90;;;;;;5032874;28;20409;-71
2022/06/15 04:16:37;;;;;;;6.90;4.82;;;12.70;99.90;;;;;;5015595;28;20037;-71
2022/06/15 04:19:04;;;;;;;8.07;5.28;;;12.80;99.90;;;;;;5032061;28;20045;-71
2022/06/15 04:21:30;;;;;;;9.32;4.95;;;12.80;99.90;;;;;;5015581;28;20448;-71
2022/06/15 04:23:56;;;;;;;7.70;4.72;;;12.90;99.90;;;;;;5031921;28;20029;-71
2022/06/15 04:26:22;;;;;;;9.05;5.30;;;12.90;99.90;;;;;;5031950;28;20099;-71
2022/06/15 04:28:47;;;;;;;11.65;5.25;;;12.90;99.90;;;;;;5031960;28;20512;-71
2022/06/15 04:31:13;;;;;;;8.90;5.07;;;12.90;99.90;;;;;;5032143;28;20455;-71
2022/06/15 04:33:39;;;;;;;8.35;4.65;;;12.90;99.90;;;;;;5015371;28;20049;-71
2022/06/15 04:36:05;;;;;;;7.90;4.93;;;13.00;99.90;;;;;;5032037;28;20049;-71
2022/06/15 04:38:30;;;;;;;9.50;4.90;;;13.00;99.90;;;;;;5031848;28;20041;-71
2022/06/15 04:40:56;;;;;;;9.88;5.47;;;13.10;99.90;;;;;;5031293;28;20045;-71
2022/06/15 04:43:22;;;;;;;9.02;5.28;;;13.10;99.90;;;;;;5031369;28;20410;-71
2022/06/15 04:45:48;;;;;;;7.22;5.30;;;13.20;99.90;;;;;;5015388;28;20124;-71
2022/06/15 04:48:14;;;;;;;9.75;5.47;;;13.20;99.90;;;;;;5015265;28;20037;-71
2022/06/15 04:50:40;;;;;;;11.75;5.10;;;13.20;99.90;;;;;;5031739;28;20037;-71
2022/06/15 04:53:06;;;;;;;10.52;5.05;;;13.20;99.90;;;;;;5031598;28;20482;-71
2022/06/15 04:55:33;;;;;;;9.88;5.10;;;13.30;99.90;;;;;;5031614;28;20104;-71
2022/06/15 04:57:59;;;;;;;11.55;4.95;;;13.30;99.90;;;;;;5015507;28;20049;-71
2022/06/15 05:00:29;;;;;;;9.98;5.30;;;13.30;99.90;;;;;;5015189;28;20150;-71
2022/06/15 05:02:56;;;;;;;9.75;5.00;;;13.40;99.90;;;;;;5031962;28;20041;-71
2022/06/15 05:05:22;;;;;;;9.43;4.75;;;13.40;99.90;;;;;;5031835;28;20143;-71
2022/06/15 05:07:48;;;;;;;9.25;4.72;;;13.50;99.90;;;;;;5031554;28;20048;-71
2022/06/15 05:10:21;;;;;;;9.82;4.43;;;13.60;99.90;;;;;;5031815;28;20414;-71
2022/06/15 05:12:47;;;;;;;10.00;5.47;;;13.60;99.90;;;;;;5015361;28;20136;-71
2022/06/15 05:15:14;;;;;;;8.63;4.90;;;13.60;99.90;;;;;;5031410;28;20139;-71
2022/06/15 05:17:41;;;;;;;11.43;5.07;;;13.70;99.90;;;;;;5031456;28;20103;-71
2022/06/15 05:20:09;;;;;;;7.68;5.18;;;13.70;99.90;;;;;;5031448;28;20080;-71
2022/06/15 05:22:36;;;;;;;8.25;5.00;;;13.80;99.90;;;;;;5015245;28;20073;-71
2022/06/15 05:25:02;;;;;;;12.15;5.05;;;13.80;99.90;;;;;;5014836;28;20076;-71
2022/06/15 05:27:28;;;;;;;7.45;5.10;;;13.80;99.90;;;;;;5031382;28;20040;-71
2022/06/15 05:29:53;;;;;;;9.77;5.07;;;13.80;99.90;;;;;;5031339;28;20033;-71
2022/06/15 05:32:19;;;;;;;8.05;4.78;;;13.90;99.90;;;;;;5015178;28;20063;-71
2022/06/15 05:34:44;;;;;;;11.13;5.20;;;13.90;99.90;;;;;;5015058;28;20488;-71
2022/06/15 05:37:10;;;;;;;13.52;5.63;;;14.00;99.90;;;;;;5014803;28;20037;-71
2022/06/15 05:39:36;;;;;;;7.55;4.78;;;14.00;99.90;;;;;;5031577;28;20041;-71
2022/06/15 05:42:03;;;;;;;9.43;4.25;;;14.00;99.90;;;;;;5014921;28;20034;-71
2022/06/15 05:47:08;;;;;;;6.07;3.80;;;14.30;99.90;;;;;;5031280;28;20053;-71
2022/06/15 05:49:34;;;;;;;6.95;4.60;;;14.30;99.90;;;;;;5031269;28;20045;-71
2022/06/15 05:52:01;;;;;;;10.73;4.45;;;14.40;99.90;;;;;;5031475;28;20137;-71
2022/06/15 05:54:26;;;;;;;7.80;3.65;;;14.50;99.90;;;;;;5018173;28;20041;-71
2022/06/15 05:56:52;;;;;;;9.60;3.83;;;14.60;99.90;;;;;;5018308;28;20045;-71
2022/06/15 05:59:18;;;;;;;8.80;4.60;;;14.60;99.90;;;;;;5018128;28;20075;-71
2022/06/15 06:01:44;;;;;;;8.98;3.75;;;14.70;99.90;;;;;;5034921;28;20045;-71
2022/06/15 06:04:13;;;;;;;9.40;4.10;;;14.80;99.90;;;;;;5018221;28;20375;-71
2022/06/15 06:06:39;;;;;;;7.50;3.40;;;14.90;99.90;;;;;;5018387;28;20045;-71
2022/06/15 06:09:05;;;;;;;9.13;3.30;;;15.00;99.90;;;;;;5034458;28;20108;-71
2022/06/15 06:11:30;;;;;;;11.25;3.60;;;15.20;99.90;;;;;;5034485;28;20038;-71
2022/06/15 06:13:56;;;;;;;6.47;3.17;;;15.30;99.90;;;;;;5034356;28;20095;-72
2022/06/15 06:16:22;;;;;;;9.70;3.47;;;15.30;99.90;;;;;;5017795;28;20038;-71
2022/06/15 06:18:47;;;;;;;9.23;3.63;;;15.30;99.90;;;;;;5034330;28;20044;-70
2022/06/15 06:21:13;;;;;;;8.90;3.47;;;15.40;99.90;;;;;;5034519;28;20044;-70
2022/06/15 06:23:39;;;;;;;11.90;4.15;;;15.40;99.90;;;;;;5034122;28;20489;-70
2022/06/15 06:26:05;;;;;;;9.18;3.28;;;15.50;99.90;;;;;;5017990;28;20045;-71
2022/06/15 06:28:38;;;;;;;7.30;3.60;;;15.60;99.90;;;;;;5034172;28;20070;-70
2022/06/15 06:31:05;;;;;;;7.25;3.03;;;15.80;99.90;;;;;;5034128;28;20460;-71
2022/06/15 06:33:33;;;;;;;7.75;3.13;;;15.90;99.90;;;;;;5017560;28;20489;-71
2022/06/15 06:36:02;;;;;;;5.93;3.10;;;16.00;99.90;;;;;;5033949;28;20095;-71
2022/06/15 06:38:28;;;;;;;6.88;2.50;;;16.00;99.90;;;;;;5017722;28;20059;-71
2022/06/15 06:40:56;;;;;;;7.40;2.85;;;16.20;99.90;;;;;;5033884;28;20405;-71
2022/06/15 06:43:22;;;;;;;7.97;2.85;;;16.20;99.90;;;;;;5017190;28;20043;-71
2022/06/15 06:45:49;;;;;;;7.05;2.65;;;16.30;99.90;;;;;;5033861;28;20552;-71
2022/06/15 06:48:15;;;;;;;6.82;2.40;;;16.40;99.90;;;;;;5033803;28;20038;-71
2022/06/15 06:50:41;;;;;;;9.13;3.35;;;16.50;99.90;;;;;;5017295;28;20038;-71
2022/06/15 06:53:09;;;;;;;7.72;2.50;;;16.60;99.90;;;;;;5017125;28;20033;-71
2022/06/15 06:55:35;;;;;;;6.22;2.20;;;16.70;99.90;;;;;;5033539;28;20038;-71
2022/06/15 06:58:01;;;;;;;9.43;2.28;;;16.80;99.90;;;;;;5033559;28;20124;-71
2022/06/15 07:00:29;;;;;;;8.13;2.33;;;16.90;99.90;;;;;;5033481;28;20120;-71
2022/06/15 07:02:54;;;;;;;4.93;1.60;;;17.00;99.90;;;;;;5017268;28;20042;-71
2022/06/15 07:05:20;;;;;;;6.00;1.58;;;17.10;99.90;;;;;;5032707;28;20049;-71
2022/06/15 07:07:46;;;;;;;6.28;2.30;;;17.20;99.90;;;;;;5033396;28;20044;-71
2022/06/15 07:10:14;;;;;;;8.57;1.73;;;17.30;99.90;;;;;;5033295;28;20095;-71
2022/06/15 07:12:42;;;;;;;8.15;1.65;;;17.50;99.90;;;;;;5033576;28;20037;-71
2022/06/15 07:15:10;;;;;;;4.80;1.48;;;17.60;99.90;;;;;;5033296;28;20081;-71
2022/06/15 07:17:36;;;;;;;3.92;1.52;;;17.70;99.90;;;;;;5016686;28;20037;-71
2022/06/15 07:20:03;;;;;;;5.70;1.60;;;17.80;99.90;;;;;;5033129;28;20044;-71
2022/06/15 07:22:30;;;;;;;8.73;1.80;;;17.90;99.90;;;;;;5017052;28;20045;-71
2022/06/15 07:24:56;;;;;;;7.78;2.03;;;18.10;99.90;;;;;;5016825;28;20067;-71
2022/06/15 07:27:22;;;;;;;4.80;1.63;;;18.10;99.90;;;;;;5016640;28;20041;-71
2022/06/15 07:29:49;;;;;;;6.63;1.58;;;18.20;99.90;;;;;;5032979;28;20038;-71
2022/06/15 07:32:16;;;;;;;7.05;1.73;;;18.30;99.90;;;;;;5016486;28;20098;-71
2022/06/15 07:34:41;;;;;;;6.00;1.80;;;18.40;99.90;;;;;;5016301;28;20041;-71
2022/06/15 07:37:07;;;;;;;6.78;1.63;;;18.50;99.90;;;;;;5032731;28;20038;-70
2022/06/15 07:39:33;;;;;;;5.00;1.75;;;18.50;99.90;;;;;;5032812;28;20048;-70
2022/06/15 07:42:00;;;;;;;6.63;1.73;;;18.60;99.90;;;;;;5032682;28;20038;-70
2022/06/15 07:44:27;;;;;;;7.80;1.90;;;18.70;99.90;;;;;;5073876;22;20049;-70
2022/06/15 07:49:54;;;;;;;6.78;2.00;;;18.80;99.90;;;;;;5032729;28;20044;-71
2022/06/15 07:49:55;;;;;;;8.70;2.38;;;18.90;99.90;;;;;;5033191;28;20057;-71
2022/06/15 07:52:26;;;;;;;7.40;2.10;;;19.00;99.90;;;;;;5032890;28;20124;-71
2022/06/15 07:54:52;;;;;;;8.50;2.05;;;19.10;99.90;;;;;;5032856;28;20057;-70
2022/06/15 07:57:17;;;;;;;7.45;2.40;;;19.20;99.90;;;;;;5032512;28;20084;-71
2022/06/15 07:59:44;;;;;;;9.57;1.70;;;19.30;99.90;;;;;;5032629;28;20041;-70
2022/06/15 08:02:09;;;;;;;8.30;2.10;;;19.40;99.90;;;;;;5033546;28;20481;-70
2022/06/15 08:04:35;;;;;;;8.85;2.22;;;19.50;99.90;;;;;;5032280;28;20071;-70
2022/06/15 08:07:01;;;;;;;6.93;2.03;;;19.60;99.90;;;;;;5032388;28;20095;-70
2022/06/15 08:09:27;;;;;;;6.43;1.52;;;19.70;99.90;;;;;;5015872;28;20049;-70
2022/06/15 08:12:11;;;;;;;5.47;1.60;;;19.90;99.90;;;;;;5032332;28;20041;-71
2022/06/15 08:14:40;;;;;;;6.25;1.83;;;20.00;99.90;;;;;;5032484;28;20041;-71
2022/06/15 08:17:08;;;;;;;6.80;1.63;;;20.20;99.90;;;;;;5031394;28;20038;-71
2022/06/15 08:19:36;;;;;;;9.60;1.55;;;20.40;99.90;;;;;;5032104;28;20164;-71
2022/06/15 08:22:02;;;;;;;7.70;1.30;;;20.50;99.90;;;;;;5032006;28;20076;-71
2022/06/15 08:24:29;;;;;;;6.80;1.60;;;20.50;99.90;;;;;;5032248;28;20041;-73
2022/06/15 08:26:55;;;;;;;6.57;1.83;;;20.60;99.90;;;;;;5032257;28;20460;-71
2022/06/15 08:29:21;;;;;;;6.00;1.60;;;20.70;99.90;;;;;;5031913;28;20038;-71
2022/06/15 08:31:47;;;;;;;6.88;1.92;;;20.70;99.70;;;;;;5031977;28;20045;-74
2022/06/15 08:34:12;;;;;;;7.25;1.73;;;20.60;99.90;;;;;;5031983;28;20164;-74
2022/06/15 08:36:38;;;;;;;6.47;1.90;;;20.60;99.90;;;;;;5031861;28;20129;-73
2022/06/15 08:39:05;;;;;;;7.45;1.60;;;20.70;99.90;;;;;;5031899;28;20504;-74
2022/06/15 08:41:42;;;;;;;8.85;2.22;;;20.60;99.90;;;;;;5031847;28;20045;-74
2022/06/15 08:44:31;;;;;;;6.32;1.83;;;20.50;99.90;;;;;;5031919;28;20083;-74
2022/06/15 08:47:04;;;;;;;5.28;1.73;;;20.40;99.90;;;;;;5031881;28;20099;-74
2022/06/15 08:49:45;;;;;;;5.47;1.80;;;20.60;99.90;;;;;;5031965;28;20049;-74
2022/06/15 08:52:17;;;;;;;8.10;2.08;;;20.90;99.90;;;;;;5032123;28;20049;-75
2022/06/15 08:54:55;;;;;;;5.82;1.67;;;21.10;99.90;;;;;;5031744;28;20041;-74
2022/06/15 08:57:45;;;;;;;9.57;2.25;;;21.20;99.90;;;;;;5031739;28;20038;-73
2022/06/15 09:00:48;;;;;;;7.78;1.83;;;21.00;99.90;;;;;;5020931;28;20104;-74
2022/06/15 09:03:19;;;;;;;6.18;1.70;;;20.80;99.90;;;;;;4988960;28;20095;-74
2022/06/15 09:06:03;;;;;;;3.60;1.20;;;20.60;99.00;;;;;;5015451;28;20073;-74
2022/06/15 09:08:46;;;;;;;5.00;1.17;;;20.70;97.50;;;;;;5031699;28;20490;-73
2022/06/15 09:11:11;;;;;;;;;;;21.00;97.00;;;;;;5032042;28;20042;-74
2022/06/15 09:13:58;;;;;;;3.65;1.25;;;21.30;96.70;;;;;;5031798;28;19963;-73
2022/06/15 09:16:30;;;;;;;4.05;1.20;;;21.50;92.80;;;;;;5015093;28;20046;-74
2022/06/15 09:19:08;;;;;;;4.22;1.10;;;21.80;90.20;;;;;;5015370;28;20048;-74
2022/06/15 09:21:41;;;;;;;4.40;1.77;;;21.90;82.20;;;;;;5031583;28;20037;-75
2022/06/15 09:25:01;;;;;;;6.05;1.50;;;21.80;83.90;;;;;;5031803;28;20104;-74
2022/06/15 09:27:33;;;;;;;5.90;1.65;;;21.50;87.70;;;;;;4940485;28;20042;-74
2022/06/15 09:30:22;;;;;;;3.53;1.30;;;21.40;91.30;;;;;;5022600;28;20057;-73
2022/06/15 09:32:59;;;;;;;4.47;1.08;;;21.70;87.90;;;;;;5035270;28;20072;-74
2022/06/15 09:35:37;;;;;;;4.43;1.60;;;22.10;83.90;;;;;;5035386;28;20045;-73
2022/06/15 09:38:06;;;;;;;4.65;1.58;;;22.30;85.00;;;;;;5018680;28;20045;-73
2022/06/15 09:40:55;;;;;;;6.05;1.60;;;22.60;83.80;;;;;;5035107;28;20046;-74
2022/06/15 09:43:58;;;;;;;4.15;1.45;;;22.80;77.00;;;;;;5035455;28;20099;-74
2022/06/15 09:46:32;;;;;;;;;;;22.90;74.90;;;;;;5035484;28;20047;-73
2022/06/15 09:49:14;;;;;;;4.30;1.40;;;22.80;76.80;;;;;;5034920;28;20006;-74
2022/06/15 09:52:01;;;;;;;5.55;1.85;;;23.00;73.60;;;;;;5035079;28;20432;-74
2022/06/15 09:55:07;;;;;;;8.07;1.75;;;23.20;75.90;;;;;;5035153;28;20409;-73
2022/06/15 09:57:35;;;;;;;5.13;1.67;;;23.40;74.50;;;;;;5007731;28;20057;-74
2022/06/15 10:00:03;;;;;;;4.95;1.60;;;23.40;77.50;;;;;;5034969;28;20072;-73
2022/06/15 10:02:32;;;;;;;2.83;1.02;;;23.40;72.40;;;;;;5035770;28;20044;-74
2022/06/15 10:05:00;;;;;;;5.53;1.40;;;23.40;69.00;;;;;;5034554;28;20041;-74
2022/06/15 10:07:28;;;;;;;7.18;1.63;;;23.50;70.50;;;;;;5034715;28;20080;-73
2022/06/15 10:10:00;;;;;;;5.38;1.60;;;23.60;67.20;;;;;;5034436;28;20512;-74
2022/06/15 10:15:19;;;;;;;5.18;1.25;;;23.90;70.40;;;;;;5034379;28;20053;-73
2022/06/15 10:17:50;;;;;;;7.75;1.77;;;24.10;65.80;;;;;;5017830;28;20417;-74
2022/06/15 10:20:24;;;;;;;4.90;1.60;;;24.30;63.80;;;;;;5034538;28;20378;-74
2022/06/15 10:22:54;;;;;;;6.28;1.50;;;24.50;66.00;;;;;;5034560;28;20124;-74
2022/06/15 10:25:21;;;;;;;6.22;1.50;;;24.70;62.50;;;;;;5034136;28;20037;-73
2022/06/15 10:27:47;;;;;;;6.53;1.60;;;24.80;63.30;;;;;;5034386;28;20075;-74
2022/06/15 10:30:23;;;;;;;5.95;1.65;;;24.90;62.50;;;;;;5034026;28;20049;-73
2022/06/15 10:33:12;;;;;;;3.80;1.33;;;25.00;60.90;;;;;;5034086;28;20037;-74
2022/06/15 10:35:38;;;;;;;5.60;2.03;;;25.10;61.10;;;;;;5033960;28;20046;-74
2022/06/15 10:38:11;;;;;;;6.05;1.38;;;25.10;60.70;;;;;;5033839;28;20042;-74
2022/06/15 10:40:39;;;;;;;4.82;1.48;;;25.20;61.00;;;;;;5032931;28;20504;-74
2022/06/15 10:43:19;;;;;;;5.18;1.30;;;25.30;60.80;;;;;;5033732;28;20524;-75
2022/06/15 10:46:04;;;;;;;4.65;1.35;;;25.50;58.70;;;;;;5033942;28;20490;-75
2022/06/15 10:48:43;;;;;;;4.35;1.25;;;25.60;58.40;;;;;;5033862;28;20041;-75
2022/06/15 10:51:17;;;;;;;6.03;1.20;;;25.60;57.60;;;;;;5033763;28;20512;-75
2022/06/15 10:53:54;;;;;;;6.55;1.52;;;25.70;56.80;;;;;;5033610;28;20164;-74
2022/06/15 11:02:37;;;;;;;4.30;1.35;;;25.80;54.30;;;;;;5033758;28;20445;-74
2022/06/15 11:05:08;;;;;;;5.45;1.40;;;25.40;55.70;;;;;;5033656;28;20088;-74
2022/06/15 11:08:04;;;;;;;5.47;1.60;;;25.20;57.10;;;;;;5033356;28;20083;-74
2022/06/15 11:10:32;;;;;;;5.70;1.30;;;25.10;56.90;;;;;;5016939;28;20045;-75
2022/06/15 11:13:04;;;;;;;3.08;1.00;;;24.80;58.10;;;;;;5033292;28;20037;-72
2022/06/15 11:18:39;;;;;;;4.10;1.35;;;25.00;58.20;;;;;;5033152;28;20050;-71
2022/06/15 11:21:18;;;;;;;7.25;1.40;;;25.30;55.60;;;;;;5033225;28;20045;-72
2022/06/15 11:24:06;;;;;;;6.43;1.30;;;25.60;57.00;;;;;;5033149;28;20045;-72
2022/06/15 11:26:52;;;;;;;4.13;1.20;;;25.80;52.80;;;;;;5033065;28;20071;-72
2022/06/15 11:29:48;;;;;;;4.65;1.20;;;26.00;55.20;;;;;;5033113;28;20060;-72
2022/06/15 11:32:36;;;;;;;6.75;1.80;;;26.10;54.80;;;;;;5033011;28;20079;-72
2022/06/15 11:35:16;;;;;;;6.07;1.50;;;26.00;53.20;;;;;;5032844;28;20518;-72
2022/06/15 11:37:55;;;;;;;9.73;2.17;;;26.00;54.00;;;;;;5032886;28;20052;-72
2022/06/15 11:40:36;;;;;;;4.30;1.30;;;26.10;54.90;;;;;;5032882;28;20038;-72
2022/06/15 11:43:15;;;;;;;7.70;1.38;;;26.20;52.80;;;;;;5032829;28;20038;-72
2022/06/15 11:46:06;;;;;;;6.22;1.27;;;26.20;50.70;;;;;;5032678;28;20040;-72
2022/06/15 11:48:41;;;;;;;9.38;1.42;;;26.30;55.60;;;;;;5023900;28;20057;-72
2022/06/15 11:51:38;;;;;;;8.40;1.40;;;26.40;53.10;;;;;;5032480;28;20494;-72
2022/06/15 11:54:18;;;;;;;5.32;1.30;;;26.60;51.80;;;;;;4999019;28;20114;-72
2022/06/15 11:56:58;;;;;;;6.93;1.60;;;26.70;54.10;;;;;;5032482;28;20417;-72
2022/06/15 11:59:47;;;;;;;3.72;1.20;;;26.80;51.80;;;;;;5032540;28;20116;-73
2022/06/15 12:02:44;;;;;;;5.35;1.40;;;27.00;54.90;;;;;;5032576;28;20116;-73
2022/06/15 12:05:25;;;;;;;4.93;1.40;;;26.90;50.50;;;;;;5032312;28;20073;-73
2022/06/15 12:08:20;;;;;;;4.97;1.20;;;26.60;52.30;;;;;;5032366;28;20049;-72
2022/06/15 12:12:37;;;;;;;5.93;1.40;;;26.30;52.30;;;;;;5032424;28;20052;-73
2022/06/15 12:14:12;;;;;;;4.65;1.58;;;26.30;51.10;;;;;;5032548;28;20056;-72
2022/06/15 12:16:58;;;;;;;4.65;1.13;;;26.30;51.70;;;;;;5032359;28;20130;-72
2022/06/15 12:19:54;;;;;;;6.20;1.38;;;26.30;52.40;;;;;;5032244;28;20037;-72
2022/06/15 12:22:33;;;;;;;6.38;1.38;;;26.60;54.00;;;;;;4999837;28;20107;-72
2022/06/15 12:25:19;;;;;;;4.68;1.25;;;26.80;52.80;;;;;;5033343;28;20401;-72
2022/06/15 12:28:08;;;;;;;5.82;1.42;;;26.90;52.40;;;;;;5032406;28;20041;-72
2022/06/15 12:30:36;;;;;;;3.65;1.20;;;26.80;51.80;;;;;;5032088;28;20441;-72
2022/06/15 12:33:13;;;;;;;4.72;1.33;;;26.60;52.80;;;;;;5031995;28;20083;-72
2022/06/15 12:35:41;;;;;;;4.78;1.45;;;26.20;52.20;;;;;;5031944;28;20387;-72
2022/06/15 12:38:41;;;;;;;4.07;1.25;;;26.10;52.50;;;;;;5033336;28;20049;-72
2022/06/15 12:44:04;;;;;;;5.28;1.20;;;26.40;50.60;;;;;;5031697;28;20045;-71
2022/06/15 12:46:32;;;;;;;3.75;1.40;;;26.60;51.80;;;;;;5032285;28;20046;-78
2022/06/15 12:49:28;;;;;;;4.28;1.45;;;26.70;51.10;;;;;;5015345;28;20047;-72
2022/06/15 12:52:20;;;;;;;2.80;1.10;;;26.80;51.50;;;;;;5032083;28;20513;-72
2022/06/15 12:55:07;;;;;;;5.45;1.58;;;27.00;50.40;;;;;;5031810;28;20049;-77
2022/06/15 12:57:55;;;;;;;3.92;1.30;;;27.00;51.60;;;;;;5031913;28;20076;-78
2022/06/15 13:00:24;;;;;;;3.72;1.13;;;27.20;52.30;;;;;;5031789;28;20128;-76
2022/06/15 13:03:11;;;;;;;5.22;1.52;;;27.30;52.00;;;;;;5016581;28;20124;-76
2022/06/15 13:05:38;;;;;;;3.70;1.23;;;27.40;50.40;;;;;;5036381;28;20045;-72
2022/06/15 13:08:22;;;;;;;4.90;1.48;;;27.40;51.90;;;;;;5035724;28;20049;-72
2022/06/15 13:10:53;;;;;;;4.15;1.30;;;27.50;49.00;;;;;;5035719;28;20079;-72
2022/06/15 13:13:30;;;;;;;3.97;1.23;;;27.60;49.60;;;;;;5036865;28;20041;-72
2022/06/15 13:16:08;;;;;;;3.35;1.08;;;27.60;49.60;;;;;;5035536;28;20068;-72
2022/06/15 13:18:52;;;;;;;3.47;1.92;;;27.80;49.00;;;;;;5035551;28;20049;-72
2022/06/15 13:21:20;;;;;;;3.42;1.27;;;27.60;48.80;;;;;;5019067;28;20401;-72
2022/06/15 13:24:06;;;;;;;5.75;1.60;;;27.50;49.00;;;;;;5018923;28;20553;-71
2022/06/15 13:26:38;;;;;;;6.35;1.45;;;27.60;49.60;;;;;;5035393;28;20045;-72
2022/06/15 13:29:03;;;;;;;5.97;1.60;;;27.70;50.00;;;;;;5035386;28;20049;-72
2022/06/15 13:31:52;;;;;;;4.20;1.35;;;27.80;50.70;;;;;;5035481;28;20466;-72